sensor_id;sensor_type;location;lat;lon;timestamp;temperature;humidity
66708;DHT22;53622;0.000;0.000;2023-04-16T00:01:47;21.40;51.60
66708;DHT22;53622;0.000;0.000;2023-04-16T00:04:16;21.40;51.60
66708;DHT22;53622;0.000;0.000;2023-04-16T00:06:46;21.40;51.90
66708;DHT22;53622;0.000;0.000;2023-04-16T00:09:15;21.40;51.70
66708;DHT22;53622;0.000;0.000;2023-04-16T00:11:44;21.40;51.60
66708;DHT22;53622;0.000;0.000;2023-04-16T00:14:14;21.40;51.80
66708;DHT22;53622;0.000;0.000;2023-04-16T00:16:43;21.30;52.00
66708;DHT22;53622;0.000;0.000;2023-04-16T00:19:14;21.30;51.70
66708;DHT22;53622;0.000;0.000;2023-04-16T00:21:43;21.30;51.90
66708;DHT22;53622;0.000;0.000;2023-04-16T00:24:12;21.30;51.90
66708;DHT22;53622;0.000;0.000;2023-04-16T00:26:42;21.30;51.80
66708;DHT22;53622;0.000;0.000;2023-04-16T00:29:13;21.30;51.90
66708;DHT22;53622;0.000;0.000;2023-04-16T00:31:42;21.30;51.90
66708;DHT22;53622;0.000;0.000;2023-04-16T00:34:11;21.30;51.80
66708;DHT22;53622;0.000;0.000;2023-04-16T00:36:42;21.30;51.80
66708;DHT22;53622;0.000;0.000;2023-04-16T00:39:11;21.30;51.80
66708;DHT22;53622;0.000;0.000;2023-04-16T00:41:42;21.20;51.80
66708;DHT22;53622;0.000;0.000;2023-04-16T00:44:12;21.30;51.70
66708;DHT22;53622;0.000;0.000;2023-04-16T00:46:41;21.20;52.30
66708;DHT22;53622;0.000;0.000;2023-04-16T00:49:11;21.20;51.80
66708;DHT22;53622;0.000;0.000;2023-04-16T00:51:42;21.30;51.70
66708;DHT22;53622;0.000;0.000;2023-04-16T00:54:11;21.20;51.70
66708;DHT22;53622;0.000;0.000;2023-04-16T00:56:40;21.20;51.70
66708;DHT22;53622;0.000;0.000;2023-04-16T00:59:10;21.20;51.60
66708;DHT22;53622;0.000;0.000;2023-04-16T01:01:40;21.20;51.60
66708;DHT22;53622;0.000;0.000;2023-04-16T01:04:09;21.20;51.60
66708;DHT22;53622;0.000;0.000;2023-04-16T01:06:39;21.20;51.60
66708;DHT22;53622;0.000;0.000;2023-04-16T01:09:10;21.20;51.60
66708;DHT22;53622;0.000;0.000;2023-04-16T01:11:39;21.20;51.60
66708;DHT22;53622;0.000;0.000;2023-04-16T01:14:09;21.20;51.60
66708;DHT22;53622;0.000;0.000;2023-04-16T01:16:38;21.20;51.90
66708;DHT22;53622;0.000;0.000;2023-04-16T01:19:07;21.20;51.70
66708;DHT22;53622;0.000;0.000;2023-04-16T01:21:38;21.20;51.90
66708;DHT22;53622;0.000;0.000;2023-04-16T01:24:07;21.10;51.60
66708;DHT22;53622;0.000;0.000;2023-04-16T01:26:36;21.20;51.70
66708;DHT22;53622;0.000;0.000;2023-04-16T01:29:06;21.10;51.60
66708;DHT22;53622;0.000;0.000;2023-04-16T01:31:35;21.20;51.70
66708;DHT22;53622;0.000;0.000;2023-04-16T01:34:10;21.10;51.50
66708;DHT22;53622;0.000;0.000;2023-04-16T01:36:40;21.10;51.50
66708;DHT22;53622;0.000;0.000;2023-04-16T01:39:10;21.10;51.60
66708;DHT22;53622;0.000;0.000;2023-04-16T01:41:42;21.10;51.50
66708;DHT22;53622;0.000;0.000;2023-04-16T01:44:11;21.10;51.60
66708;DHT22;53622;0.000;0.000;2023-04-16T01:46:42;21.10;51.60
66708;DHT22;53622;0.000;0.000;2023-04-16T01:49:11;21.10;51.60
66708;DHT22;53622;0.000;0.000;2023-04-16T01:51:42;21.10;51.50
66708;DHT22;53622;0.000;0.000;2023-04-16T01:54:11;21.10;51.60
66708;DHT22;53622;0.000;0.000;2023-04-16T01:56:41;21.10;51.50
66708;DHT22;53622;0.000;0.000;2023-04-16T01:59:10;21.10;51.50
66708;DHT22;53622;0.000;0.000;2023-04-16T02:01:41;21.10;51.60
66708;DHT22;53622;0.000;0.000;2023-04-16T02:04:11;21.10;51.60
66708;DHT22;53622;0.000;0.000;2023-04-16T02:06:42;21.10;51.50
66708;DHT22;53622;0.000;0.000;2023-04-16T02:09:13;21.10;51.60
66708;DHT22;53622;0.000;0.000;2023-04-16T02:11:43;21.10;51.60
66708;DHT22;53622;0.000;0.000;2023-04-16T02:14:12;21.00;51.70
66708;DHT22;53622;0.000;0.000;2023-04-16T02:16:42;21.10;51.70
66708;DHT22;53622;0.000;0.000;2023-04-16T02:19:19;21.10;51.60
66708;DHT22;53622;0.000;0.000;2023-04-16T02:21:50;21.00;51.60
66708;DHT22;53622;0.000;0.000;2023-04-16T02:24:20;21.10;51.70
66708;DHT22;53622;0.000;0.000;2023-04-16T02:26:49;21.00;51.60
66708;DHT22;53622;0.000;0.000;2023-04-16T02:29:18;21.00;51.60
66708;DHT22;53622;0.000;0.000;2023-04-16T02:31:58;21.00;51.70
66708;DHT22;53622;0.000;0.000;2023-04-16T02:34:29;21.00;51.70
66708;DHT22;53622;0.000;0.000;2023-04-16T02:37:01;21.00;51.70
66708;DHT22;53622;0.000;0.000;2023-04-16T02:39:31;21.00;51.80
66708;DHT22;53622;0.000;0.000;2023-04-16T02:42:00;21.00;52.20
66708;DHT22;53622;0.000;0.000;2023-04-16T02:44:30;21.00;51.60
66708;DHT22;53622;0.000;0.000;2023-04-16T02:46:59;21.00;51.70
66708;DHT22;53622;0.000;0.000;2023-04-16T02:49:28;21.00;51.70
66708;DHT22;53622;0.000;0.000;2023-04-16T02:51:58;21.00;51.70
66708;DHT22;53622;0.000;0.000;2023-04-16T02:54:29;21.00;51.80
66708;DHT22;53622;0.000;0.000;2023-04-16T02:56:58;21.00;51.80
66708;DHT22;53622;0.000;0.000;2023-04-16T02:59:27;21.00;51.70
66708;DHT22;53622;0.000;0.000;2023-04-16T03:01:56;21.00;51.80
66708;DHT22;53622;0.000;0.000;2023-04-16T03:04:26;20.90;51.80
66708;DHT22;53622;0.000;0.000;2023-04-16T03:06:55;20.90;51.70
66708;DHT22;53622;0.000;0.000;2023-04-16T03:09:24;20.90;51.80
66708;DHT22;53622;0.000;0.000;2023-04-16T03:11:55;20.90;51.80
66708;DHT22;53622;0.000;0.000;2023-04-16T03:14:24;20.90;51.70
66708;DHT22;53622;0.000;0.000;2023-04-16T03:16:53;20.90;51.80
66708;DHT22;53622;0.000;0.000;2023-04-16T03:19:23;20.90;51.80
66708;DHT22;53622;0.000;0.000;2023-04-16T03:21:52;20.90;51.70
66708;DHT22;53622;0.000;0.000;2023-04-16T03:24:21;20.90;51.70
66708;DHT22;53622;0.000;0.000;2023-04-16T03:26:51;20.90;51.80
66708;DHT22;53622;0.000;0.000;2023-04-16T03:29:24;20.90;51.80
66708;DHT22;53622;0.000;0.000;2023-04-16T03:31:55;20.90;51.70
66708;DHT22;53622;0.000;0.000;2023-04-16T03:34:25;20.90;51.80
66708;DHT22;53622;0.000;0.000;2023-04-16T03:36:54;20.90;51.90
66708;DHT22;53622;0.000;0.000;2023-04-16T03:39:23;20.90;51.80
66708;DHT22;53622;0.000;0.000;2023-04-16T03:41:53;20.90;51.80
66708;DHT22;53622;0.000;0.000;2023-04-16T03:44:23;20.90;51.90
66708;DHT22;53622;0.000;0.000;2023-04-16T03:46:52;20.90;51.80
66708;DHT22;53622;0.000;0.000;2023-04-16T03:49:22;20.90;51.90
66708;DHT22;53622;0.000;0.000;2023-04-16T03:51:52;20.90;51.80
66708;DHT22;53622;0.000;0.000;2023-04-16T03:54:21;20.90;51.80
66708;DHT22;53622;0.000;0.000;2023-04-16T03:56:58;20.90;51.80
66708;DHT22;53622;0.000;0.000;2023-04-16T03:59:29;20.80;51.90
66708;DHT22;53622;0.000;0.000;2023-04-16T04:01:59;20.80;51.90
66708;DHT22;53622;0.000;0.000;2023-04-16T04:04:29;20.80;51.90
66708;DHT22;53622;0.000;0.000;2023-04-16T04:06:58;20.80;51.90
66708;DHT22;53622;0.000;0.000;2023-04-16T04:09:28;20.80;51.90
66708;DHT22;53622;0.000;0.000;2023-04-16T04:11:57;20.80;51.90
66708;DHT22;53622;0.000;0.000;2023-04-16T04:14:28;20.80;51.90
66708;DHT22;53622;0.000;0.000;2023-04-16T04:16:59;20.80;51.90
66708;DHT22;53622;0.000;0.000;2023-04-16T04:19:30;20.80;91.00
66708;DHT22;53622;0.000;0.000;2023-04-16T04:21:59;20.80;51.90
66708;DHT22;53622;0.000;0.000;2023-04-16T04:24:29;20.80;51.70
66708;DHT22;53622;0.000;0.000;2023-04-16T04:26:58;20.80;51.90
66708;DHT22;53622;0.000;0.000;2023-04-16T04:29:30;20.80;52.00
66708;DHT22;53622;0.000;0.000;2023-04-16T04:31:59;20.80;51.90
66708;DHT22;53622;0.000;0.000;2023-04-16T04:34:29;20.80;52.60
66708;DHT22;53622;0.000;0.000;2023-04-16T04:36:58;20.80;52.10
66708;DHT22;53622;0.000;0.000;2023-04-16T04:39:28;20.70;55.90
66708;DHT22;53622;0.000;0.000;2023-04-16T04:41:57;20.70;89.20
66708;DHT22;53622;0.000;0.000;2023-04-16T04:44:27;20.80;89.70
66708;DHT22;53622;0.000;0.000;2023-04-16T04:46:58;20.70;88.30
66708;DHT22;53622;0.000;0.000;2023-04-16T04:49:27;21.00;87.70
66708;DHT22;53622;0.000;0.000;2023-04-16T04:51:57;20.80;52.40
66708;DHT22;53622;0.000;0.000;2023-04-16T04:54:27;20.80;52.70
66708;DHT22;53622;0.000;0.000;2023-04-16T04:56:56;20.90;52.80
66708;DHT22;53622;0.000;0.000;2023-04-16T04:59:27;21.00;52.90
66708;DHT22;53622;0.000;0.000;2023-04-16T05:01:59;21.10;53.20
66708;DHT22;53622;0.000;0.000;2023-04-16T05:04:29;21.10;53.70
66708;DHT22;53622;0.000;0.000;2023-04-16T05:06:58;21.20;54.30
66708;DHT22;53622;0.000;0.000;2023-04-16T05:09:28;21.30;87.60
66708;DHT22;53622;0.000;0.000;2023-04-16T05:11:58;21.30;54.20
66708;DHT22;53622;0.000;0.000;2023-04-16T05:14:27;21.40;54.20
66708;DHT22;53622;0.000;0.000;2023-04-16T05:16:58;21.40;53.90
66708;DHT22;53622;0.000;0.000;2023-04-16T05:19:28;21.40;53.80
66708;DHT22;53622;0.000;0.000;2023-04-16T05:21:57;21.50;53.90
66708;DHT22;53622;0.000;0.000;2023-04-16T05:24:26;21.40;53.80
66708;DHT22;53622;0.000;0.000;2023-04-16T05:26:56;21.50;53.80
66708;DHT22;53622;0.000;0.000;2023-04-16T05:29:25;21.50;54.80
66708;DHT22;53622;0.000;0.000;2023-04-16T05:31:55;21.50;54.00
66708;DHT22;53622;0.000;0.000;2023-04-16T05:34:26;21.60;53.60
66708;DHT22;53622;0.000;0.000;2023-04-16T05:36:55;21.50;52.90
66708;DHT22;53622;0.000;0.000;2023-04-16T05:39:24;21.70;84.60
66708;DHT22;53622;0.000;0.000;2023-04-16T05:41:54;21.50;53.50
66708;DHT22;53622;0.000;0.000;2023-04-16T05:44:24;21.50;52.70
66708;DHT22;53622;0.000;0.000;2023-04-16T05:46:57;21.50;52.60
66708;DHT22;53622;0.000;0.000;2023-04-16T05:49:28;21.50;52.60
66708;DHT22;53622;0.000;0.000;2023-04-16T05:51:57;21.50;52.90
66708;DHT22;53622;0.000;0.000;2023-04-16T05:54:27;21.50;53.20
66708;DHT22;53622;0.000;0.000;2023-04-16T05:56:57;21.60;53.20
66708;DHT22;53622;0.000;0.000;2023-04-16T05:59:26;21.60;53.00
66708;DHT22;53622;0.000;0.000;2023-04-16T06:01:56;21.60;53.10
66708;DHT22;53622;0.000;0.000;2023-04-16T06:04:25;21.60;53.10
66708;DHT22;53622;0.000;0.000;2023-04-16T06:06:56;21.60;53.10
66708;DHT22;53622;0.000;0.000;2023-04-16T06:09:25;21.60;53.10
66708;DHT22;53622;0.000;0.000;2023-04-16T06:11:55;21.60;52.60
66708;DHT22;53622;0.000;0.000;2023-04-16T06:14:24;21.60;52.70
66708;DHT22;53622;0.000;0.000;2023-04-16T06:16:54;21.60;53.00
66708;DHT22;53622;0.000;0.000;2023-04-16T06:19:23;21.60;53.20
66708;DHT22;53622;0.000;0.000;2023-04-16T06:21:53;21.60;53.00
66708;DHT22;53622;0.000;0.000;2023-04-16T06:24:23;21.60;52.80
66708;DHT22;53622;0.000;0.000;2023-04-16T06:26:53;21.60;52.90
66708;DHT22;53622;0.000;0.000;2023-04-16T06:29:24;21.60;52.80
66708;DHT22;53622;0.000;0.000;2023-04-16T06:32:07;21.70;53.00
66708;DHT22;53622;0.000;0.000;2023-04-16T06:34:37;21.70;53.10
66708;DHT22;53622;0.000;0.000;2023-04-16T06:37:06;21.70;53.00
66708;DHT22;53622;0.000;0.000;2023-04-16T06:39:38;21.60;81.90
66708;DHT22;53622;0.000;0.000;2023-04-16T06:42:08;21.70;53.00
66708;DHT22;53622;0.000;0.000;2023-04-16T06:44:38;21.70;53.00
66708;DHT22;53622;0.000;0.000;2023-04-16T06:47:07;21.70;53.20
66708;DHT22;53622;0.000;0.000;2023-04-16T06:49:37;21.70;53.40
66708;DHT22;53622;0.000;0.000;2023-04-16T06:52:07;21.70;52.90
66708;DHT22;53622;0.000;0.000;2023-04-16T06:54:37;21.70;52.90
66708;DHT22;53622;0.000;0.000;2023-04-16T06:57:07;21.70;52.70
66708;DHT22;53622;0.000;0.000;2023-04-16T06:59:36;21.70;53.30
66708;DHT22;53622;0.000;0.000;2023-04-16T07:02:07;21.70;52.70
66708;DHT22;53622;0.000;0.000;2023-04-16T07:04:37;21.80;53.00
66708;DHT22;53622;0.000;0.000;2023-04-16T07:07:07;21.80;53.20
66708;DHT22;53622;0.000;0.000;2023-04-16T07:09:37;21.80;53.00
66708;DHT22;53622;0.000;0.000;2023-04-16T07:12:07;21.80;53.40
66708;DHT22;53622;0.000;0.000;2023-04-16T07:14:36;21.80;89.70
66708;DHT22;53622;0.000;0.000;2023-04-16T07:17:06;21.90;90.60
66708;DHT22;53622;0.000;0.000;2023-04-16T07:19:35;21.90;91.90
66708;DHT22;53622;0.000;0.000;2023-04-16T07:22:05;21.80;91.50
66708;DHT22;53622;0.000;0.000;2023-04-16T07:24:35;21.70;90.70
66708;DHT22;53622;0.000;0.000;2023-04-16T07:27:05;21.90;53.30
66708;DHT22;53622;0.000;0.000;2023-04-16T07:29:35;21.70;91.90
66708;DHT22;53622;0.000;0.000;2023-04-16T07:32:04;21.90;86.30
66708;DHT22;53622;0.000;0.000;2023-04-16T07:34:34;21.90;86.60
66708;DHT22;53622;0.000;0.000;2023-04-16T07:37:03;21.60;91.50
66708;DHT22;53622;0.000;0.000;2023-04-16T07:39:32;21.70;90.90
66708;DHT22;53622;0.000;0.000;2023-04-16T07:42:02;21.80;91.80
66708;DHT22;53622;0.000;0.000;2023-04-16T07:44:32;21.80;91.50
66708;DHT22;53622;0.000;0.000;2023-04-16T07:47:02;21.80;90.90
66708;DHT22;53622;0.000;0.000;2023-04-16T07:49:32;21.90;90.60
66708;DHT22;53622;0.000;0.000;2023-04-16T07:52:02;21.80;90.90
66708;DHT22;53622;0.000;0.000;2023-04-16T07:57:01;21.90;93.70
66708;DHT22;53622;0.000;0.000;2023-04-16T08:02:01;21.80;53.20
66708;DHT22;53622;0.000;0.000;2023-04-16T08:04:30;21.80;52.80
66708;DHT22;53622;0.000;0.000;2023-04-16T08:07:00;21.80;52.80
66708;DHT22;53622;0.000;0.000;2023-04-16T08:09:29;21.80;53.60
66708;DHT22;53622;0.000;0.000;2023-04-16T08:11:59;21.90;53.50
66708;DHT22;53622;0.000;0.000;2023-04-16T08:14:28;21.90;53.50
66708;DHT22;53622;0.000;0.000;2023-04-16T08:16:57;21.90;53.60
66708;DHT22;53622;0.000;0.000;2023-04-16T08:19:28;21.90;53.50
66708;DHT22;53622;0.000;0.000;2023-04-16T08:21:58;21.90;53.50
66708;DHT22;53622;0.000;0.000;2023-04-16T08:24:28;21.90;53.30
66708;DHT22;53622;0.000;0.000;2023-04-16T08:26:57;21.90;53.50
66708;DHT22;53622;0.000;0.000;2023-04-16T08:29:44;21.90;53.50
66708;DHT22;53622;0.000;0.000;2023-04-16T08:32:14;21.90;53.50
66708;DHT22;53622;0.000;0.000;2023-04-16T08:34:45;21.90;53.50
66708;DHT22;53622;0.000;0.000;2023-04-16T08:37:14;21.90;53.50
66708;DHT22;53622;0.000;0.000;2023-04-16T08:39:44;21.90;53.50
66708;DHT22;53622;0.000;0.000;2023-04-16T08:42:22;21.90;53.70
66708;DHT22;53622;0.000;0.000;2023-04-16T08:45:00;21.90;53.50
66708;DHT22;53622;0.000;0.000;2023-04-16T08:47:34;21.90;53.90
66708;DHT22;53622;0.000;0.000;2023-04-16T08:50:06;21.90;53.70
66708;DHT22;53622;0.000;0.000;2023-04-16T08:52:37;21.90;53.90
66708;DHT22;53622;0.000;0.000;2023-04-16T08:55:12;22.00;53.70
66708;DHT22;53622;0.000;0.000;2023-04-16T08:57:46;21.90;53.80
66708;DHT22;53622;0.000;0.000;2023-04-16T09:00:16;22.00;54.10
66708;DHT22;53622;0.000;0.000;2023-04-16T09:02:46;22.00;53.90
66708;DHT22;53622;0.000;0.000;2023-04-16T09:05:19;22.00;53.80
66708;DHT22;53622;0.000;0.000;2023-04-16T09:07:52;22.00;54.00
66708;DHT22;53622;0.000;0.000;2023-04-16T09:10:22;22.00;52.60
66708;DHT22;53622;0.000;0.000;2023-04-16T09:12:55;22.00;52.50
66708;DHT22;53622;0.000;0.000;2023-04-16T09:15:25;22.00;53.30
66708;DHT22;53622;0.000;0.000;2023-04-16T09:17:54;22.00;53.60
66708;DHT22;53622;0.000;0.000;2023-04-16T09:20:25;22.00;53.30
66708;DHT22;53622;0.000;0.000;2023-04-16T09:22:55;22.00;53.20
66708;DHT22;53622;0.000;0.000;2023-04-16T09:25:24;22.00;53.40
66708;DHT22;53622;0.000;0.000;2023-04-16T09:27:54;22.00;53.10
66708;DHT22;53622;0.000;0.000;2023-04-16T09:30:25;22.00;53.40
66708;DHT22;53622;0.000;0.000;2023-04-16T09:33:13;22.00;53.10
66708;DHT22;53622;0.000;0.000;2023-04-16T09:35:49;22.10;53.30
66708;DHT22;53622;0.000;0.000;2023-04-16T09:38:19;22.00;53.00
66708;DHT22;53622;0.000;0.000;2023-04-16T09:41:05;22.00;53.30
66708;DHT22;53622;0.000;0.000;2023-04-16T09:43:36;22.10;53.30
66708;DHT22;53622;0.000;0.000;2023-04-16T09:46:05;22.00;53.10
66708;DHT22;53622;0.000;0.000;2023-04-16T09:48:35;22.00;53.40
66708;DHT22;53622;0.000;0.000;2023-04-16T09:51:06;22.00;52.60
66708;DHT22;53622;0.000;0.000;2023-04-16T09:53:36;22.10;53.30
66708;DHT22;53622;0.000;0.000;2023-04-16T09:56:07;22.10;53.40
66708;DHT22;53622;0.000;0.000;2023-04-16T09:58:37;22.10;53.30
66708;DHT22;53622;0.000;0.000;2023-04-16T10:01:08;22.10;53.40
66708;DHT22;53622;0.000;0.000;2023-04-16T10:03:38;22.10;53.10
66708;DHT22;53622;0.000;0.000;2023-04-16T10:06:14;22.10;53.30
66708;DHT22;53622;0.000;0.000;2023-04-16T10:08:46;22.20;91.20
66708;DHT22;53622;0.000;0.000;2023-04-16T10:11:18;22.10;53.10
66708;DHT22;53622;0.000;0.000;2023-04-16T10:13:47;22.20;90.40
66708;DHT22;53622;0.000;0.000;2023-04-16T10:16:17;22.10;53.30
66708;DHT22;53622;0.000;0.000;2023-04-16T10:18:46;22.10;53.30
66708;DHT22;53622;0.000;0.000;2023-04-16T10:21:18;22.10;53.30
66708;DHT22;53622;0.000;0.000;2023-04-16T10:26:18;22.10;52.60
66708;DHT22;53622;0.000;0.000;2023-04-16T10:28:49;22.10;53.10
66708;DHT22;53622;0.000;0.000;2023-04-16T10:31:18;22.10;53.10
66708;DHT22;53622;0.000;0.000;2023-04-16T10:33:48;22.10;53.30
66708;DHT22;53622;0.000;0.000;2023-04-16T10:36:24;22.10;52.00
66708;DHT22;53622;0.000;0.000;2023-04-16T10:38:58;22.20;52.50
66708;DHT22;53622;0.000;0.000;2023-04-16T10:41:28;22.20;52.80
66708;DHT22;53622;0.000;0.000;2023-04-16T10:44:04;22.20;52.80
66708;DHT22;53622;0.000;0.000;2023-04-16T10:46:37;22.20;52.40
66708;DHT22;53622;0.000;0.000;2023-04-16T10:49:14;22.20;52.30
66708;DHT22;53622;0.000;0.000;2023-04-16T10:51:56;22.20;52.00
66708;DHT22;53622;0.000;0.000;2023-04-16T10:54:27;22.20;52.20
66708;DHT22;53622;0.000;0.000;2023-04-16T10:56:58;22.20;52.80
66708;DHT22;53622;0.000;0.000;2023-04-16T10:59:32;22.20;52.80
66708;DHT22;53622;0.000;0.000;2023-04-16T11:02:06;22.30;52.10
66708;DHT22;53622;0.000;0.000;2023-04-16T11:04:38;22.30;52.20
66708;DHT22;53622;0.000;0.000;2023-04-16T11:07:16;22.30;52.70
66708;DHT22;53622;0.000;0.000;2023-04-16T11:09:54;22.30;53.00
66708;DHT22;53622;0.000;0.000;2023-04-16T11:12:26;22.30;52.90
66708;DHT22;53622;0.000;0.000;2023-04-16T11:15:03;22.30;52.70
66708;DHT22;53622;0.000;0.000;2023-04-16T11:17:36;22.30;52.80
66708;DHT22;53622;0.000;0.000;2023-04-16T11:20:15;22.30;52.90
66708;DHT22;53622;0.000;0.000;2023-04-16T11:22:49;22.30;52.60
66708;DHT22;53622;0.000;0.000;2023-04-16T11:25:19;22.30;52.90
66708;DHT22;53622;0.000;0.000;2023-04-16T11:27:50;22.20;52.60
66708;DHT22;53622;0.000;0.000;2023-04-16T11:30:27;22.30;52.80
66708;DHT22;53622;0.000;0.000;2023-04-16T11:32:57;22.30;53.00
66708;DHT22;53622;0.000;0.000;2023-04-16T11:35:27;22.30;52.60
66708;DHT22;53622;0.000;0.000;2023-04-16T11:37:58;22.30;52.40
66708;DHT22;53622;0.000;0.000;2023-04-16T11:40:29;22.30;52.50
66708;DHT22;53622;0.000;0.000;2023-04-16T11:43:01;22.30;52.70
66708;DHT22;53622;0.000;0.000;2023-04-16T11:45:31;22.30;52.70
66708;DHT22;53622;0.000;0.000;2023-04-16T11:48:00;22.30;52.70
66708;DHT22;53622;0.000;0.000;2023-04-16T11:50:29;22.30;52.80
66708;DHT22;53622;0.000;0.000;2023-04-16T11:53:04;22.30;52.50
66708;DHT22;53622;0.000;0.000;2023-04-16T11:55:42;22.30;52.80
66708;DHT22;53622;0.000;0.000;2023-04-16T11:58:13;22.30;52.90
66708;DHT22;53622;0.000;0.000;2023-04-16T12:00:44;22.30;52.80
66708;DHT22;53622;0.000;0.000;2023-04-16T12:03:14;22.30;52.90
66708;DHT22;53622;0.000;0.000;2023-04-16T12:05:44;22.40;52.90
66708;DHT22;53622;0.000;0.000;2023-04-16T12:08:27;22.40;52.70
66708;DHT22;53622;0.000;0.000;2023-04-16T12:10:58;22.40;52.70
66708;DHT22;53622;0.000;0.000;2023-04-16T12:13:27;22.30;52.60
66708;DHT22;53622;0.000;0.000;2023-04-16T12:15:57;22.40;52.80
66708;DHT22;53622;0.000;0.000;2023-04-16T12:18:26;22.40;52.70
66708;DHT22;53622;0.000;0.000;2023-04-16T12:20:56;22.40;52.70
66708;DHT22;53622;0.000;0.000;2023-04-16T12:23:27;22.40;51.80
66708;DHT22;53622;0.000;0.000;2023-04-16T12:25:58;22.30;50.50
66708;DHT22;53622;0.000;0.000;2023-04-16T12:28:30;22.30;51.70
66708;DHT22;53622;0.000;0.000;2023-04-16T12:31:00;22.30;51.90
66708;DHT22;53622;0.000;0.000;2023-04-16T12:33:30;22.20;52.20
66708;DHT22;53622;0.000;0.000;2023-04-16T12:35:59;22.20;52.20
66708;DHT22;53622;0.000;0.000;2023-04-16T12:38:32;22.20;52.30
66708;DHT22;53622;0.000;0.000;2023-04-16T12:41:02;22.20;52.90
66708;DHT22;53622;0.000;0.000;2023-04-16T12:43:33;22.20;52.90
66708;DHT22;53622;0.000;0.000;2023-04-16T12:46:02;22.10;52.80
66708;DHT22;53622;0.000;0.000;2023-04-16T12:48:32;22.10;53.00
66708;DHT22;53622;0.000;0.000;2023-04-16T12:51:01;22.10;52.70
66708;DHT22;53622;0.000;0.000;2023-04-16T12:53:32;22.10;52.60
66708;DHT22;53622;0.000;0.000;2023-04-16T12:56:02;22.10;52.70
66708;DHT22;53622;0.000;0.000;2023-04-16T12:58:31;22.10;53.00
66708;DHT22;53622;0.000;0.000;2023-04-16T13:01:01;22.10;52.60
66708;DHT22;53622;0.000;0.000;2023-04-16T13:03:30;22.00;52.90
66708;DHT22;53622;0.000;0.000;2023-04-16T13:06:00;22.10;52.50
66708;DHT22;53622;0.000;0.000;2023-04-16T13:08:29;22.10;52.60
66708;DHT22;53622;0.000;0.000;2023-04-16T13:11:00;22.00;52.40
66708;DHT22;53622;0.000;0.000;2023-04-16T13:13:30;22.00;52.30
66708;DHT22;53622;0.000;0.000;2023-04-16T13:15:59;22.00;52.50
66708;DHT22;53622;0.000;0.000;2023-04-16T13:18:30;22.00;52.60
66708;DHT22;53622;0.000;0.000;2023-04-16T13:21:00;22.00;52.40
66708;DHT22;53622;0.000;0.000;2023-04-16T13:23:29;22.00;52.30
66708;DHT22;53622;0.000;0.000;2023-04-16T13:26:00;22.00;52.60
66708;DHT22;53622;0.000;0.000;2023-04-16T13:28:30;21.90;51.80
66708;DHT22;53622;0.000;0.000;2023-04-16T13:30:59;21.90;52.00
66708;DHT22;53622;0.000;0.000;2023-04-16T13:33:32;21.90;51.90
66708;DHT22;53622;0.000;0.000;2023-04-16T13:36:01;21.90;52.50
66708;DHT22;53622;0.000;0.000;2023-04-16T13:38:31;21.90;52.50
66708;DHT22;53622;0.000;0.000;2023-04-16T13:41:02;21.90;52.50
66708;DHT22;53622;0.000;0.000;2023-04-16T13:43:31;21.90;52.70
66708;DHT22;53622;0.000;0.000;2023-04-16T13:46:02;21.90;52.50
66708;DHT22;53622;0.000;0.000;2023-04-16T13:48:31;21.90;52.50
66708;DHT22;53622;0.000;0.000;2023-04-16T13:51:01;21.80;52.50
66708;DHT22;53622;0.000;0.000;2023-04-16T13:53:31;21.80;52.30
66708;DHT22;53622;0.000;0.000;2023-04-16T13:56:01;21.80;52.30
66708;DHT22;53622;0.000;0.000;2023-04-16T13:58:31;21.80;52.50
66708;DHT22;53622;0.000;0.000;2023-04-16T14:01:01;21.80;52.30
66708;DHT22;53622;0.000;0.000;2023-04-16T14:03:30;21.80;52.30
66708;DHT22;53622;0.000;0.000;2023-04-16T14:06:03;21.80;52.50
66708;DHT22;53622;0.000;0.000;2023-04-16T14:08:32;21.80;52.20
66708;DHT22;53622;0.000;0.000;2023-04-16T14:11:03;21.80;52.20
66708;DHT22;53622;0.000;0.000;2023-04-16T14:13:33;21.80;51.90
66708;DHT22;53622;0.000;0.000;2023-04-16T14:16:02;21.80;51.80
66708;DHT22;53622;0.000;0.000;2023-04-16T14:18:32;21.70;52.20
66708;DHT22;53622;0.000;0.000;2023-04-16T14:21:02;21.70;52.00
66708;DHT22;53622;0.000;0.000;2023-04-16T14:23:32;21.70;52.10
66708;DHT22;53622;0.000;0.000;2023-04-16T14:26:03;21.70;52.00
66708;DHT22;53622;0.000;0.000;2023-04-16T14:28:34;21.70;52.10
66708;DHT22;53622;0.000;0.000;2023-04-16T14:31:04;21.70;52.10
66708;DHT22;53622;0.000;0.000;2023-04-16T14:33:33;21.70;52.10
66708;DHT22;53622;0.000;0.000;2023-04-16T14:36:02;21.70;52.00
66708;DHT22;53622;0.000;0.000;2023-04-16T14:38:32;21.70;51.90
66708;DHT22;53622;0.000;0.000;2023-04-16T14:41:02;21.70;51.90
66708;DHT22;53622;0.000;0.000;2023-04-16T14:43:32;21.70;51.90
66708;DHT22;53622;0.000;0.000;2023-04-16T14:46:02;21.70;51.80
66708;DHT22;53622;0.000;0.000;2023-04-16T14:48:33;21.60;51.60
66708;DHT22;53622;0.000;0.000;2023-04-16T14:51:02;21.60;51.80
66708;DHT22;53622;0.000;0.000;2023-04-16T14:53:32;21.60;51.90
66708;DHT22;53622;0.000;0.000;2023-04-16T14:56:04;21.60;51.70
66708;DHT22;53622;0.000;0.000;2023-04-16T14:58:34;21.60;51.70
66708;DHT22;53622;0.000;0.000;2023-04-16T15:01:06;21.60;51.60
66708;DHT22;53622;0.000;0.000;2023-04-16T15:03:35;21.60;51.50
66708;DHT22;53622;0.000;0.000;2023-04-16T15:06:05;21.60;51.60
66708;DHT22;53622;0.000;0.000;2023-04-16T15:08:35;21.60;51.60
66708;DHT22;53622;0.000;0.000;2023-04-16T15:11:06;21.60;51.60
66708;DHT22;53622;0.000;0.000;2023-04-16T15:13:35;21.60;51.60
66708;DHT22;53622;0.000;0.000;2023-04-16T15:16:04;21.60;51.40
66708;DHT22;53622;0.000;0.000;2023-04-16T15:18:34;21.60;51.40
66708;DHT22;53622;0.000;0.000;2023-04-16T15:21:03;21.60;51.30
66708;DHT22;53622;0.000;0.000;2023-04-16T15:23:33;21.50;51.10
66708;DHT22;53622;0.000;0.000;2023-04-16T15:26:02;21.50;51.30
66708;DHT22;53622;0.000;0.000;2023-04-16T15:28:33;21.50;51.20
66708;DHT22;53622;0.000;0.000;2023-04-16T15:31:03;21.50;51.40
66708;DHT22;53622;0.000;0.000;2023-04-16T15:33:33;21.60;51.40
66708;DHT22;53622;0.000;0.000;2023-04-16T15:36:03;21.50;51.30
66708;DHT22;53622;0.000;0.000;2023-04-16T15:38:33;21.50;51.50
66708;DHT22;53622;0.000;0.000;2023-04-16T15:41:02;21.50;51.50
66708;DHT22;53622;0.000;0.000;2023-04-16T15:43:33;21.50;51.50
66708;DHT22;53622;0.000;0.000;2023-04-16T15:46:02;21.50;51.40
66708;DHT22;53622;0.000;0.000;2023-04-16T15:48:32;21.50;51.40
66708;DHT22;53622;0.000;0.000;2023-04-16T15:51:01;21.50;51.60
66708;DHT22;53622;0.000;0.000;2023-04-16T15:53:31;21.50;51.50
66708;DHT22;53622;0.000;0.000;2023-04-16T15:56:01;21.50;51.40
66708;DHT22;53622;0.000;0.000;2023-04-16T15:58:32;21.50;51.50
66708;DHT22;53622;0.000;0.000;2023-04-16T16:01:02;21.50;51.40
66708;DHT22;53622;0.000;0.000;2023-04-16T16:03:32;21.40;51.40
66708;DHT22;53622;0.000;0.000;2023-04-16T16:06:02;21.40;51.40
66708;DHT22;53622;0.000;0.000;2023-04-16T16:08:32;21.40;51.30
66708;DHT22;53622;0.000;0.000;2023-04-16T16:11:03;21.40;51.60
66708;DHT22;53622;0.000;0.000;2023-04-16T16:13:34;21.40;51.50